createdAt,value
2023-01-21T00:01:13.485Z,24.47
2023-01-21T00:03:41.897Z,23.17
2023-01-21T00:06:10.533Z,24.43
2023-01-21T00:08:39.798Z,24.93
2023-01-21T00:11:08.594Z,25.83
2023-01-21T00:13:37.389Z,24.03
2023-01-21T00:16:06.410Z,23.10
2023-01-21T00:18:34.832Z,24.27
2023-01-21T00:21:03.105Z,22.63
2023-01-21T00:23:31.087Z,24.23
2023-01-21T00:26:01.746Z,25.40
2023-01-21T00:28:30.214Z,25.20
2023-01-21T00:30:59.382Z,22.63
2023-01-21T00:33:27.529Z,24.17
2023-01-21T00:36:01.135Z,25.13
2023-01-21T00:38:29.289Z,23.93
2023-01-21T00:41:02.790Z,26.77
2023-01-21T00:43:31.165Z,25.60
2023-01-21T00:45:59.360Z,25.50
2023-01-21T00:48:28.387Z,26.03
2023-01-21T00:51:00.339Z,24.07
2023-01-21T00:53:28.838Z,23.50
2023-01-21T00:56:00.217Z,24.63
2023-01-21T00:58:30.193Z,24.27
2023-01-21T01:01:02.739Z,24.57
2023-01-21T01:03:30.909Z,24.70
2023-01-21T01:06:03.798Z,25.40
2023-01-21T01:08:31.872Z,22.80
2023-01-21T01:11:00.060Z,25.30
2023-01-21T01:13:29.976Z,23.77
2023-01-21T01:15:58.693Z,24.63
2023-01-21T01:18:28.297Z,25.37
2023-01-21T01:20:56.372Z,23.60
2023-01-21T01:23:24.492Z,25.63
2023-01-21T01:25:56.784Z,24.80
2023-01-21T01:28:24.839Z,24.37
2023-01-21T01:30:54.499Z,26.20
2023-01-21T01:33:22.616Z,24.53
2023-01-21T01:35:50.816Z,25.40
2023-01-21T01:38:20.990Z,25.07
2023-01-21T01:40:50.441Z,24.03
2023-01-21T01:43:20.556Z,24.70
2023-01-21T01:45:50.130Z,25.33
2023-01-21T01:48:21.825Z,25.10
2023-01-21T01:50:50.516Z,25.23
2023-01-21T01:53:20.707Z,23.23
2023-01-21T01:55:50.039Z,26.10
2023-01-21T01:58:20.484Z,25.07
2023-01-21T02:00:48.400Z,27.13
2023-01-21T02:03:35.531Z,28.47
2023-01-21T02:06:05.428Z,25.30
2023-01-21T02:08:36.287Z,26.33
2023-01-21T02:11:11.602Z,24.83
2023-01-21T02:13:40.586Z,27.87
2023-01-21T02:16:26.897Z,25.27
2023-01-21T02:19:04.955Z,26.77
2023-01-21T02:21:49.134Z,26.97
2023-01-21T02:24:46.107Z,25.93
2023-01-21T02:27:33.764Z,26.53
2023-01-21T02:30:36.713Z,27.90
2023-01-21T02:33:30.753Z,27.63
2023-01-21T02:36:10.289Z,26.40
2023-01-21T02:38:45.476Z,26.90
2023-01-21T02:41:24.583Z,27.47
2023-01-21T02:43:58.261Z,27.30
2023-01-21T02:46:32.234Z,26.70
2023-01-21T02:49:08.196Z,26.97
2023-01-21T02:51:36.508Z,25.07
2023-01-21T02:54:14.868Z,28.00
2023-01-21T02:56:44.016Z,28.03
2023-01-21T02:59:12.684Z,27.00
2023-01-21T03:01:52.141Z,28.27
2023-01-21T03:04:44.778Z,28.90
2023-01-21T03:07:21.737Z,28.87
2023-01-21T03:09:49.846Z,28.97
2023-01-21T03:12:31.919Z,26.00
2023-01-21T03:15:23.693Z,26.63
2023-01-21T03:17:55.837Z,28.23
2023-01-21T03:20:28.485Z,30.63
2023-01-21T03:23:02.228Z,28.17
2023-01-21T03:25:31.754Z,30.50
2023-01-21T03:28:01.880Z,29.17
2023-01-21T03:30:31.536Z,29.23
2023-01-21T03:33:01.395Z,28.93
2023-01-21T03:35:34.390Z,30.93
2023-01-21T03:38:10.054Z,29.97
2023-01-21T03:40:43.378Z,30.43
2023-01-21T03:43:11.885Z,28.57
2023-01-21T03:45:45.630Z,30.93
2023-01-21T03:48:19.633Z,29.57
2023-01-21T03:50:53.310Z,30.57
2023-01-21T03:53:21.608Z,28.97
2023-01-21T03:55:51.966Z,28.43
2023-01-21T03:58:20.002Z,32.60
2023-01-21T04:00:49.175Z,30.53
2023-01-21T04:03:17.189Z,30.43
2023-01-21T04:05:45.172Z,31.17
2023-01-21T04:08:14.532Z,28.37
2023-01-21T04:10:42.468Z,31.17
2023-01-21T04:13:10.372Z,31.23
2023-01-21T04:15:38.324Z,30.90
2023-01-21T04:18:06.351Z,31.17
2023-01-21T04:20:34.360Z,31.17
2023-01-21T04:23:02.286Z,31.13
2023-01-21T04:25:31.697Z,30.97
2023-01-21T04:27:59.677Z,32.27
2023-01-21T04:30:27.820Z,32.67
2023-01-21T04:32:55.840Z,31.27
2023-01-21T04:35:23.847Z,31.20
2023-01-21T04:37:51.872Z,30.60
2023-01-21T04:40:19.995Z,31.87
2023-01-21T04:42:49.351Z,30.27
2023-01-21T04:45:17.313Z,32.20
2023-01-21T04:47:46.573Z,43.70
2023-01-21T04:50:16.599Z,34.80
2023-01-21T04:52:44.881Z,33.87
2023-01-21T04:55:13.172Z,31.67
2023-01-21T04:57:41.142Z,31.97
2023-01-21T05:00:11.816Z,31.50
2023-01-21T05:02:39.829Z,30.77
2023-01-21T05:05:08.864Z,30.47
2023-01-21T05:07:37.740Z,32.63
2023-01-21T05:10:06.235Z,33.37
2023-01-21T05:12:34.199Z,32.10
2023-01-21T05:15:02.182Z,31.13
2023-01-21T05:17:31.550Z,31.60
2023-01-21T05:19:59.508Z,29.73
2023-01-21T05:22:27.581Z,31.75
2023-01-21T05:24:55.565Z,30.97
2023-01-21T05:27:23.496Z,31.67
2023-01-21T05:29:52.659Z,33.00
2023-01-21T05:32:21.275Z,32.17
2023-01-21T05:34:50.563Z,32.37
2023-01-21T05:37:18.547Z,30.73
2023-01-21T05:39:46.505Z,32.80
2023-01-21T05:42:14.623Z,30.57
2023-01-21T05:44:42.631Z,33.40
2023-01-21T05:47:10.664Z,31.17
2023-01-21T05:49:38.645Z,28.03
2023-01-21T05:52:08.093Z,30.43
2023-01-21T05:54:36.023Z,29.63
2023-01-21T05:57:04.087Z,30.77
2023-01-21T05:59:32.071Z,31.57
2023-01-21T06:02:00.061Z,29.70
2023-01-21T06:04:30.653Z,31.20
2023-01-21T06:06:58.829Z,31.50
2023-01-21T06:09:28.109Z,32.77
2023-01-21T06:11:56.130Z,30.87
2023-01-21T06:14:24.120Z,30.97
2023-01-21T06:16:52.027Z,29.80
2023-01-21T06:19:20.082Z,30.60
2023-01-21T06:21:47.995Z,30.87
2023-01-21T06:24:16.119Z,31.20
2023-01-21T06:26:45.540Z,31.53
2023-01-21T06:29:13.558Z,31.10
2023-01-21T06:31:41.651Z,32.10
2023-01-21T06:34:12.521Z,31.50
2023-01-21T06:36:42.699Z,30.30
2023-01-21T06:39:10.994Z,30.73
2023-01-21T06:41:39.218Z,31.37
2023-01-21T06:44:08.765Z,29.92
2023-01-21T06:46:38.355Z,29.80
2023-01-21T06:49:09.052Z,30.67
2023-01-21T06:51:37.034Z,26.75
2023-01-21T06:54:05.258Z,31.52
2023-01-21T06:56:33.186Z,30.73
2023-01-21T06:59:01.192Z,32.63
2023-01-21T07:01:32.563Z,29.15
2023-01-21T07:04:01.516Z,31.10
2023-01-21T07:06:29.533Z,31.27
2023-01-21T07:08:57.578Z,31.50
2023-01-21T07:11:25.574Z,30.80
2023-01-21T07:13:53.766Z,30.67
2023-01-21T07:16:21.809Z,28.47
2023-01-21T07:19:09.588Z,30.23
2023-01-21T07:21:37.569Z,31.40
2023-01-21T07:24:05.711Z,32.00
2023-01-21T07:26:36.154Z,30.17
2023-01-21T07:29:04.521Z,32.03
2023-01-21T07:31:32.851Z,33.10
2023-01-21T07:34:00.951Z,29.83
2023-01-21T07:36:30.251Z,29.52
2023-01-21T07:38:58.337Z,36.13
2023-01-21T07:41:26.408Z,30.17
2023-01-21T07:43:54.449Z,30.35
2023-01-21T07:46:23.949Z,29.58
2023-01-21T07:48:53.020Z,30.37
2023-01-21T07:51:21.075Z,30.00
2023-01-21T07:53:50.422Z,31.93
2023-01-21T07:56:20.309Z,31.67
2023-01-21T07:58:48.322Z,29.92
2023-01-21T08:01:16.352Z,31.60
2023-01-21T08:03:44.341Z,30.33
2023-01-21T08:06:12.330Z,32.23
2023-01-21T08:08:40.270Z,27.75
2023-01-21T08:11:09.628Z,30.95
2023-01-21T08:13:37.617Z,29.85
2023-01-21T08:16:06.353Z,27.57
2023-01-21T08:18:34.456Z,29.97
2023-01-21T08:21:02.501Z,31.00
2023-01-21T08:23:30.527Z,29.43
2023-01-21T08:26:02.569Z,31.07
2023-01-21T08:28:31.904Z,31.90
2023-01-21T08:31:05.292Z,32.25
2023-01-21T08:33:33.370Z,31.73
2023-01-21T08:36:01.955Z,31.90
2023-01-21T08:38:30.202Z,30.93
2023-01-21T08:40:58.792Z,29.30
2023-01-21T08:43:26.998Z,30.57
2023-01-21T08:45:59.377Z,29.67
2023-01-21T08:48:27.430Z,30.47
2023-01-21T08:50:55.684Z,30.97
2023-01-21T08:53:23.641Z,29.77
2023-01-21T08:55:51.603Z,30.07
2023-01-21T08:58:19.535Z,31.60
2023-01-21T09:00:47.778Z,30.57
2023-01-21T09:03:17.754Z,32.67
2023-01-21T09:05:45.721Z,32.17
2023-01-21T09:08:13.897Z,33.37
2023-01-21T09:10:59.454Z,31.00
2023-01-21T09:13:29.309Z,31.43
2023-01-21T09:15:57.659Z,31.63
2023-01-21T09:18:32.880Z,31.87
2023-01-21T09:21:07.908Z,29.73
2023-01-21T09:23:37.157Z,32.70
2023-01-21T09:26:07.606Z,29.63
2023-01-21T09:28:38.237Z,30.20
2023-01-21T09:31:08.512Z,30.60
2023-01-21T09:33:39.786Z,31.10
2023-01-21T09:36:09.720Z,31.23
2023-01-21T09:38:37.777Z,31.30
2023-01-21T09:41:16.305Z,31.03
2023-01-21T09:43:49.127Z,31.43
2023-01-21T09:46:23.745Z,31.90
2023-01-21T09:48:54.996Z,30.47
2023-01-21T09:51:30.047Z,32.23
2023-01-21T09:53:59.401Z,30.67
2023-01-21T09:56:35.141Z,33.30
2023-01-21T09:59:08.054Z,32.20
2023-01-21T10:01:38.672Z,29.40
2023-01-21T10:04:29.780Z,31.97
2023-01-21T10:07:03.220Z,30.67
2023-01-21T10:09:56.396Z,29.07
2023-01-21T10:12:36.678Z,32.37
2023-01-21T10:15:19.589Z,32.27
2023-01-21T10:17:56.153Z,31.07
2023-01-21T10:20:28.976Z,27.47
2023-01-21T10:23:01.612Z,29.13
2023-01-21T10:25:33.134Z,29.20
2023-01-21T10:28:06.395Z,31.70
2023-01-21T10:30:39.815Z,30.43
2023-01-21T10:33:13.715Z,28.27
2023-01-21T10:35:57.848Z,29.13
2023-01-21T10:38:34.196Z,29.50
2023-01-21T10:41:12.000Z,27.40
2023-01-21T10:43:46.834Z,30.97
2023-01-21T10:46:21.683Z,29.83
2023-01-21T10:48:57.306Z,30.50
2023-01-21T10:51:32.017Z,28.93
2023-01-21T10:54:06.908Z,30.60
2023-01-21T10:56:47.135Z,28.30
2023-01-21T10:59:18.899Z,27.93
2023-01-21T11:01:50.105Z,29.30
2023-01-21T11:04:21.224Z,27.70
2023-01-21T11:07:03.307Z,28.53
2023-01-21T11:09:33.899Z,29.73
2023-01-21T11:12:02.996Z,30.87
2023-01-21T11:14:31.070Z,27.57
2023-01-21T11:16:59.617Z,28.90
2023-01-21T11:19:30.464Z,27.90
2023-01-21T11:22:04.240Z,28.27
2023-01-21T11:24:42.154Z,28.70
2023-01-21T11:27:19.788Z,32.70
2023-01-21T11:29:49.736Z,28.07
2023-01-21T11:32:21.279Z,29.77
2023-01-21T11:34:50.854Z,29.27
2023-01-21T11:37:25.059Z,27.67
2023-01-21T11:39:56.284Z,27.03
2023-01-21T11:42:25.654Z,26.17
2023-01-21T11:44:55.662Z,28.23
2023-01-21T11:47:38.827Z,27.37
2023-01-21T11:50:13.631Z,27.07
2023-01-21T11:52:43.232Z,26.70
2023-01-21T11:55:29.707Z,27.40
2023-01-21T11:57:58.032Z,28.07
2023-01-21T12:00:27.992Z,28.20
2023-01-21T12:02:58.881Z,25.20
2023-01-21T12:05:33.188Z,25.37
2023-01-21T12:08:05.485Z,27.03
2023-01-21T12:10:36.811Z,27.13
2023-01-21T12:13:16.041Z,26.53
2023-01-21T12:16:13.733Z,28.97
2023-01-21T12:19:10.393Z,27.07
2023-01-21T12:21:54.213Z,25.97
2023-01-21T12:24:40.288Z,26.53
2023-01-21T12:27:21.990Z,24.37
2023-01-21T12:30:01.376Z,25.23
2023-01-21T12:32:32.765Z,26.33
2023-01-21T12:35:05.402Z,27.27
2023-01-21T12:37:41.205Z,26.77
2023-01-21T12:40:19.116Z,26.60
2023-01-21T12:42:52.694Z,26.90
2023-01-21T12:45:24.889Z,26.53
2023-01-21T12:47:57.801Z,25.20
2023-01-21T12:50:31.166Z,24.03
2023-01-21T12:53:11.534Z,25.53
2023-01-21T12:55:55.527Z,25.23
2023-01-21T12:58:26.657Z,27.30
2023-01-21T13:00:56.738Z,26.20
2023-01-21T13:03:30.976Z,26.07
2023-01-21T13:06:03.406Z,25.50
2023-01-21T13:08:52.434Z,23.80
2023-01-21T13:11:23.918Z,24.87
2023-01-21T13:13:58.335Z,24.00
2023-01-21T13:16:27.378Z,24.67
2023-01-21T13:18:56.592Z,24.80
2023-01-21T13:21:33.628Z,24.37
2023-01-21T13:24:12.441Z,23.97
2023-01-21T13:26:49.496Z,26.10
2023-01-21T13:29:25.335Z,23.63
2023-01-21T13:32:15.071Z,24.17
2023-01-21T13:34:52.175Z,24.13
2023-01-21T13:37:26.472Z,24.23
2023-01-21T13:40:12.046Z,22.73
2023-01-21T13:42:49.946Z,24.20
2023-01-21T13:45:27.465Z,24.27
2023-01-21T13:48:15.349Z,24.47
2023-01-21T13:51:05.553Z,24.20
2023-01-21T13:53:54.658Z,24.73
2023-01-21T13:56:40.956Z,24.53
2023-01-21T13:59:16.809Z,25.13
2023-01-21T14:01:50.457Z,24.83
2023-01-21T14:04:26.678Z,26.13
2023-01-21T14:06:59.279Z,25.40
2023-01-21T14:09:33.189Z,23.77
2023-01-21T14:12:08.000Z,25.83
2023-01-21T14:15:11.459Z,25.43
2023-01-21T14:18:06.772Z,24.80
2023-01-21T14:21:05.293Z,25.70
2023-01-21T14:23:45.004Z,25.43
2023-01-21T14:26:28.951Z,24.10
2023-01-21T14:29:08.946Z,25.00
2023-01-21T14:31:43.293Z,22.83
2023-01-21T14:34:17.532Z,22.73
2023-01-21T14:36:53.835Z,21.33
2023-01-21T14:39:36.941Z,21.10
2023-01-21T14:42:10.712Z,19.10
2023-01-21T14:44:42.857Z,19.27
2023-01-21T14:47:22.856Z,21.97
2023-01-21T14:49:53.138Z,18.57
2023-01-21T14:52:23.013Z,19.67
2023-01-21T14:54:51.086Z,19.50
2023-01-21T14:57:25.920Z,19.37
2023-01-21T14:59:56.552Z,16.13
2023-01-21T15:02:30.618Z,17.37
2023-01-21T15:05:00.753Z,16.13
2023-01-21T15:07:32.635Z,15.80
2023-01-21T15:10:03.898Z,15.27
2023-01-21T15:12:33.950Z,14.93
2023-01-21T15:15:03.988Z,13.70
2023-01-21T15:18:03.943Z,12.87
2023-01-21T15:20:50.755Z,13.17
2023-01-21T15:23:36.996Z,12.47
2023-01-21T15:26:21.373Z,13.53
2023-01-21T15:28:52.012Z,13.17
2023-01-21T15:31:50.421Z,13.13
2023-01-21T15:34:22.652Z,13.57
2023-01-21T15:36:57.271Z,13.10
2023-01-21T15:39:33.466Z,13.17
2023-01-21T15:42:15.883Z,13.80
2023-01-21T15:44:59.488Z,13.87
2023-01-21T15:47:49.436Z,13.57
2023-01-21T15:50:22.952Z,14.10
2023-01-21T15:53:06.628Z,14.47
2023-01-21T15:55:48.752Z,13.87
2023-01-21T15:58:23.720Z,13.17
2023-01-21T16:00:59.797Z,14.73
2023-01-21T16:03:33.133Z,15.00
2023-01-21T16:06:08.642Z,15.07
2023-01-21T16:08:56.016Z,15.27
2023-01-21T16:11:40.306Z,14.17
2023-01-21T16:14:20.498Z,19.83
2023-01-21T16:16:57.623Z,14.33
2023-01-21T16:19:27.550Z,16.07
2023-01-21T16:22:01.083Z,16.83
2023-01-21T16:24:30.657Z,16.73
2023-01-21T16:27:17.689Z,17.60
2023-01-21T16:29:45.939Z,15.93
2023-01-21T16:32:18.851Z,16.67
2023-01-21T16:34:47.356Z,16.37
2023-01-21T16:37:19.043Z,17.43
2023-01-21T16:39:47.216Z,17.37
2023-01-21T16:42:25.465Z,17.03
2023-01-21T16:44:54.162Z,17.47
2023-01-21T16:47:27.049Z,18.23
2023-01-21T16:49:55.112Z,17.07
2023-01-21T16:52:24.869Z,17.07
2023-01-21T16:54:54.295Z,16.87
2023-01-21T16:57:28.769Z,18.37
2023-01-21T16:59:58.063Z,19.23
2023-01-21T17:02:28.468Z,20.37
2023-01-21T17:04:58.539Z,18.97
2023-01-21T17:07:32.296Z,19.70
2023-01-21T17:10:05.092Z,18.97
2023-01-21T17:12:36.328Z,19.50
2023-01-21T17:15:17.020Z,20.03
2023-01-21T17:17:45.431Z,19.73
2023-01-21T17:20:35.500Z,20.43
2023-01-21T17:23:08.046Z,20.03
2023-01-21T17:25:37.323Z,20.47
2023-01-21T17:28:18.086Z,20.03
2023-01-21T17:30:46.342Z,19.33
2023-01-21T17:33:30.374Z,22.40
2023-01-21T17:36:10.500Z,28.27
2023-01-21T17:38:45.046Z,22.87
2023-01-21T17:41:24.476Z,20.40
2023-01-21T17:43:53.807Z,20.27
2023-01-21T17:46:23.013Z,19.83
2023-01-21T17:48:53.829Z,18.37
2023-01-21T17:51:24.743Z,20.27
2023-01-21T17:53:56.451Z,21.33
2023-01-21T17:56:39.850Z,19.67
2023-01-21T17:59:31.458Z,20.63
2023-01-21T18:01:59.532Z,19.47
2023-01-21T18:04:27.620Z,19.33
2023-01-21T18:06:56.973Z,19.90
2023-01-21T18:09:28.197Z,19.90
2023-01-21T18:11:58.377Z,20.23
2023-01-21T18:14:28.700Z,18.83
2023-01-21T18:16:56.820Z,19.50
2023-01-21T18:19:30.883Z,20.30
2023-01-21T18:21:59.256Z,19.63
2023-01-21T18:24:28.615Z,21.13
2023-01-21T18:26:57.570Z,19.67
2023-01-21T18:29:30.261Z,19.13
2023-01-21T18:31:58.757Z,18.80
2023-01-21T18:34:27.162Z,19.80
2023-01-21T18:36:56.620Z,19.90
2023-01-21T18:39:25.148Z,19.27
2023-01-21T18:41:54.443Z,20.77
2023-01-21T18:44:22.433Z,24.47
2023-01-21T18:46:50.725Z,23.33
2023-01-21T18:49:20.567Z,25.80
2023-01-21T18:51:49.012Z,23.73
2023-01-21T18:54:18.061Z,25.60
2023-01-21T18:56:47.559Z,23.87
2023-01-21T18:59:18.336Z,22.47
2023-01-21T19:01:46.794Z,25.30
2023-01-21T19:04:18.182Z,23.10
2023-01-21T19:06:47.467Z,26.73
2023-01-21T19:09:23.046Z,23.67
2023-01-21T19:11:51.721Z,24.13
2023-01-21T19:14:21.100Z,26.20
2023-01-21T19:16:49.035Z,23.87
2023-01-21T19:19:19.008Z,24.83
2023-01-21T19:21:47.197Z,25.53
2023-01-21T19:24:15.385Z,25.97
2023-01-21T19:26:43.712Z,25.47
2023-01-21T19:29:16.549Z,24.87
2023-01-21T19:31:45.954Z,33.40
2023-01-21T19:34:14.081Z,35.37
2023-01-21T19:36:42.114Z,31.63
2023-01-21T19:39:16.681Z,26.93
2023-01-21T19:41:44.753Z,26.93
2023-01-21T19:44:12.751Z,24.83
2023-01-21T19:46:40.833Z,25.80
2023-01-21T19:49:15.782Z,26.00
2023-01-21T19:51:44.935Z,25.03
2023-01-21T19:54:12.997Z,24.07
2023-01-21T19:56:41.016Z,22.83
2023-01-21T19:59:11.729Z,25.40
2023-01-21T20:01:39.742Z,23.63
2023-01-21T20:04:07.751Z,22.30
2023-01-21T20:06:40.347Z,23.27
2023-01-21T20:09:14.521Z,25.10
2023-01-21T20:11:42.587Z,24.80
2023-01-21T20:14:10.563Z,27.17
2023-01-21T20:16:44.655Z,24.03
2023-01-21T20:19:16.305Z,25.53
2023-01-21T20:21:59.863Z,24.57
2023-01-21T20:24:30.209Z,25.33
2023-01-21T20:26:58.487Z,24.20
2023-01-21T20:29:27.456Z,26.37
2023-01-21T20:31:55.499Z,26.60
2023-01-21T20:34:23.547Z,25.93
2023-01-21T20:36:53.531Z,25.83
2023-01-21T20:39:21.661Z,24.03
2023-01-21T20:41:49.631Z,27.37
2023-01-21T20:44:17.890Z,27.27
2023-01-21T20:46:46.445Z,27.33
2023-01-21T20:49:14.460Z,25.23
2023-01-21T20:51:42.421Z,27.07
2023-01-21T20:54:11.790Z,28.07
2023-01-21T20:56:39.799Z,23.47
2023-01-21T20:59:09.892Z,27.60
2023-01-21T21:01:39.394Z,28.80
2023-01-21T21:04:07.502Z,26.73
2023-01-21T21:06:35.498Z,25.90
2023-01-21T21:09:03.457Z,27.60
2023-01-21T21:11:32.756Z,24.47
2023-01-21T21:14:01.836Z,25.63
2023-01-21T21:16:31.865Z,25.20
2023-01-21T21:19:00.551Z,26.70
2023-01-21T21:21:29.441Z,23.70
2023-01-21T21:23:57.619Z,26.57
2023-01-21T21:26:29.021Z,23.30
2023-01-21T21:28:58.373Z,26.50
2023-01-21T21:31:31.743Z,24.70
2023-01-21T21:33:59.923Z,21.20
2023-01-21T21:36:28.179Z,24.17
2023-01-21T21:38:56.395Z,22.77
2023-01-21T21:41:43.739Z,22.67
2023-01-21T21:44:13.619Z,21.90
2023-01-21T21:46:59.372Z,24.93
2023-01-21T21:49:27.459Z,24.30
2023-01-21T21:51:55.591Z,25.27
2023-01-21T21:54:23.664Z,24.07
2023-01-21T21:56:51.676Z,24.63
2023-01-21T21:59:21.032Z,21.50
2023-01-21T22:01:49.087Z,22.40
2023-01-21T22:04:17.320Z,25.13
2023-01-21T22:06:45.616Z,25.17
2023-01-21T22:09:14.728Z,22.63
2023-01-21T22:11:42.828Z,23.83
2023-01-21T22:14:11.169Z,24.20
2023-01-21T22:16:40.718Z,24.13
2023-01-21T22:19:08.756Z,19.93
2023-01-21T22:21:36.783Z,23.77
2023-01-21T22:24:06.786Z,23.00
2023-01-21T22:26:35.694Z,22.67
2023-01-21T22:29:04.316Z,23.27
2023-01-21T22:31:33.316Z,24.43
2023-01-21T22:34:02.948Z,16.67
2023-01-21T22:36:31.820Z,22.87
2023-01-21T22:39:00.433Z,21.27
2023-01-21T22:41:28.723Z,20.90
2023-01-21T22:43:56.969Z,21.10
2023-01-21T22:46:26.755Z,21.50
2023-01-21T22:48:55.289Z,22.67
2023-01-21T22:51:25.025Z,23.30
2023-01-21T22:53:54.023Z,22.80
2023-01-21T22:56:39.880Z,20.77
2023-01-21T22:59:11.846Z,21.93
2023-01-21T23:01:39.931Z,20.87
2023-01-21T23:04:08.070Z,21.63
2023-01-21T23:06:38.088Z,19.33
2023-01-21T23:09:09.174Z,21.40
2023-01-21T23:11:39.439Z,20.33
2023-01-21T23:14:08.659Z,20.50
2023-01-21T23:16:36.651Z,20.87
2023-01-21T23:19:04.684Z,21.03
2023-01-21T23:21:32.695Z,22.37
2023-01-21T23:24:01.987Z,22.30
2023-01-21T23:26:29.980Z,22.23
2023-01-21T23:28:58.708Z,20.00
2023-01-21T23:31:27.080Z,19.93
2023-01-21T23:33:57.188Z,20.50
2023-01-21T23:36:25.305Z,19.97
2023-01-21T23:38:53.283Z,19.60
2023-01-21T23:41:22.638Z,18.53
2023-01-21T23:43:50.661Z,19.73
2023-01-21T23:46:20.424Z,17.67
2023-01-21T23:48:48.811Z,22.07
2023-01-21T23:51:18.409Z,20.17
2023-01-21T23:53:47.609Z,20.47
2023-01-21T23:56:17.623Z,19.90
2023-01-21T23:58:47.292Z,20.77
